Weather at CFB Trenton

Public forecast

Using degrees Celsius for public forecast. Weather courtesy of forecast.io.

Current aviation weather report (METAR) for CFB Trenton

2023/04/02 12:00 (retrieved 34 minutes ago)

CYTR 021200Z 36012KT 15SM SKC M05/M16 A3012 RMK DENSITY ALT -2427FT SLP205

Aviation forecast (TAF) for CFB Trenton

2023/04/02 12:42 (retrieved 0 seconds ago)

TAF CYTR 021140Z 0212/0312 34008KT P6SM SKC FM021600 29005KT P6SM FEW040 FEW250 FM022000 21010KT P6SM SCT250 FM030100 15005KT P6SM BKN120 FM031000 17010KT P6SM SCT050 BKN100 RMK NXT FCST BY 021800Z